Time,TemperatureF,DewpointF,PressureIn,WindDirection,WindDirectionDegrees,WindSpeedMPH,WindSpeedGustMPH,Humidity,HourlyPrecipIn,Conditions,Clouds,dailyrainin,SoftwareType,DateUTC
2015-08-04 00:03:00,77.8,72.9,30.00,SSE,158,0.0,0.0,85,0.00,,,0.00,WUHU216HW,2015-08-04 04:03:00,
2015-08-04 00:08:00,77.8,72.9,30.00,SSE,158,0.0,0.0,85,0.00,,,0.00,WUHU216HW,2015-08-04 04:08:00,
2015-08-04 00:13:00,77.8,72.9,30.00,SSE,158,1.1,2.0,85,0.00,,,0.00,WUHU216HW,2015-08-04 04:13:00,
2015-08-04 00:18:00,77.6,72.7,30.00,SSE,158,0.0,2.0,85,0.00,,,0.00,WUHU216HW,2015-08-04 04:18:00,
2015-08-04 00:23:00,77.6,72.7,30.00,SSE,158,0.0,1.1,85,0.00,,,0.00,WUHU216HW,2015-08-04 04:23:00,
2015-08-04 00:28:00,77.6,73.1,30.00,SSE,158,0.0,0.2,86,0.00,,,0.00,WUHU216HW,2015-08-04 04:28:00,
2015-08-04 00:33:00,77.6,73.1,30.00,SSE,158,0.0,0.0,86,0.00,,,0.00,WUHU216HW,2015-08-04 04:33:00,
2015-08-04 00:38:00,77.4,72.9,30.00,SSE,158,0.4,0.4,86,0.00,,,0.00,WUHU216HW,2015-08-04 04:38:00,
2015-08-04 00:43:00,77.4,72.9,30.00,SSE,158,0.7,1.1,86,0.00,,,0.00,WUHU216HW,2015-08-04 04:43:00,
2015-08-04 00:48:00,77.2,72.7,29.99,South,180,0.2,1.3,86,0.00,,,0.00,WUHU216HW,2015-08-04 04:48:00,
2015-08-04 00:52:00,77.2,72.7,29.99,SSW,203,0.0,1.3,86,0.00,,,0.00,WUHU216HW,2015-08-04 04:52:00,
2015-08-04 00:57:00,77.0,72.5,29.99,SSW,203,0.4,0.7,86,0.00,,,0.00,WUHU216HW,2015-08-04 04:57:00,
2015-08-04 01:02:00,77.2,73.1,29.99,SSW,203,0.0,0.4,87,0.00,,,0.00,WUHU216HW,2015-08-04 05:02:00,
2015-08-04 01:07:00,77.2,73.1,29.99,SSW,203,0.0,0.4,87,0.00,,,0.00,WUHU216HW,2015-08-04 05:07:00,
2015-08-04 01:12:00,77.0,72.9,29.99,SSW,203,0.0,0.4,87,0.00,,,0.00,WUHU216HW,2015-08-04 05:12:00,
2015-08-04 01:17:00,76.9,72.7,29.99,SSW,203,0.0,0.7,87,0.00,,,0.00,WUHU216HW,2015-08-04 05:17:00,
2015-08-04 01:22:00,76.7,72.5,29.99,WNW,293,0.4,0.9,87,0.00,,,0.00,WUHU216HW,2015-08-04 05:22:00,
2015-08-04 01:27:00,76.7,72.5,29.99,WNW,293,0.0,0.9,87,0.00,,,0.00,WUHU216HW,2015-08-04 05:27:00,
2015-08-04 01:32:00,76.7,72.5,29.99,WNW,293,0.0,1.1,87,0.00,,,0.00,WUHU216HW,2015-08-04 05:32:00,
2015-08-04 01:37:00,76.7,72.5,29.98,West,270,0.0,1.1,87,0.00,,,0.00,WUHU216HW,2015-08-04 05:37:00,
2015-08-04 01:42:00,76.5,72.4,29.98,West,270,0.0,0.9,87,0.00,,,0.00,WUHU216HW,2015-08-04 05:42:00,
2015-08-04 01:47:00,76.3,72.2,29.98,West,270,0.0,0.0,87,0.00,,,0.00,WUHU216HW,2015-08-04 05:47:00,
2015-08-04 01:52:00,76.5,72.4,29.98,West,270,0.0,0.0,87,0.00,,,0.00,WUHU216HW,2015-08-04 05:52:00,
2015-08-04 01:57:00,76.3,72.2,29.98,West,270,0.0,0.0,87,0.00,,,0.00,WUHU216HW,2015-08-04 05:57:00,
2015-08-04 02:02:00,76.3,72.2,29.98,West,270,0.0,0.0,87,0.00,,,0.00,WUHU216HW,2015-08-04 06:02:00,
2015-08-04 02:07:00,76.1,72.0,29.98,West,270,0.0,0.0,87,0.00,,,0.00,WUHU216HW,2015-08-04 06:07:00,
2015-08-04 02:12:00,76.0,71.8,29.98,West,270,0.0,0.0,87,0.00,,,0.00,WUHU216HW,2015-08-04 06:12:00,
2015-08-04 02:17:00,76.0,71.8,29.98,South,180,0.0,0.0,87,0.00,,,0.00,WUHU216HW,2015-08-04 06:17:00,
2015-08-04 02:22:00,75.8,71.6,29.97,SW,225,0.4,1.1,87,0.00,,,0.00,WUHU216HW,2015-08-04 06:22:00,
2015-08-04 02:27:00,75.8,72.0,29.98,SSW,203,0.4,1.1,88,0.00,,,0.00,WUHU216HW,2015-08-04 06:27:00,
2015-08-04 02:32:00,75.8,72.0,29.97,SSW,203,0.0,1.1,88,0.00,,,0.00,WUHU216HW,2015-08-04 06:32:00,
2015-08-04 02:37:00,75.6,71.8,29.97,SSE,158,0.7,1.1,88,0.00,,,0.00,WUHU216HW,2015-08-04 06:37:00,
2015-08-04 02:42:00,75.6,71.8,29.97,SSE,158,0.0,1.1,88,0.00,,,0.00,WUHU216HW,2015-08-04 06:42:00,
2015-08-04 02:47:00,75.6,71.8,29.97,SSE,158,0.0,0.7,88,0.00,,,0.00,WUHU216HW,2015-08-04 06:47:00,
2015-08-04 02:52:00,75.6,71.8,29.97,SSE,158,0.0,0.0,88,0.00,,,0.00,WUHU216HW,2015-08-04 06:52:00,
2015-08-04 02:57:00,75.6,71.8,29.97,SSE,158,0.0,0.0,88,0.00,,,0.00,WUHU216HW,2015-08-04 06:57:00,
2015-08-04 03:02:00,75.6,71.8,29.97,SSE,158,0.0,0.0,88,0.00,,,0.00,WUHU216HW,2015-08-04 07:02:00,
2015-08-04 03:07:00,75.4,71.6,29.97,SSE,158,0.0,0.0,88,0.00,,,0.00,WUHU216HW,2015-08-04 07:07:00,
2015-08-04 03:12:00,75.4,71.6,29.97,SW,225,0.0,1.1,88,0.00,,,0.00,WUHU216HW,2015-08-04 07:12:00,
2015-08-04 03:17:00,75.2,71.5,29.97,SW,225,0.0,1.1,88,0.00,,,0.00,WUHU216HW,2015-08-04 07:17:00,
2015-08-04 03:22:00,75.2,71.5,29.97,SW,225,0.0,0.0,88,0.00,,,0.00,WUHU216HW,2015-08-04 07:22:00,
2015-08-04 03:27:00,75.2,71.5,29.97,SW,225,0.0,0.0,88,0.00,,,0.00,WUHU216HW,2015-08-04 07:27:00,
2015-08-04 03:32:00,75.2,71.8,29.97,WSW,248,0.4,0.4,89,0.00,,,0.00,WUHU216HW,2015-08-04 07:32:00,
2015-08-04 03:37:00,75.2,71.8,29.97,SW,225,0.4,1.1,89,0.00,,,0.00,WUHU216HW,2015-08-04 07:37:00,
2015-08-04 03:42:00,75.2,71.8,29.97,SW,225,0.0,1.1,89,0.00,,,0.00,WUHU216HW,2015-08-04 07:42:00,
2015-08-04 03:47:00,75.1,71.6,29.97,SW,225,0.0,0.4,89,0.00,,,0.00,WUHU216HW,2015-08-04 07:47:00,
2015-08-04 03:52:00,75.1,71.6,29.97,SW,225,0.0,0.0,89,0.00,,,0.00,WUHU216HW,2015-08-04 07:52:00,
2015-08-04 03:57:00,75.1,71.6,29.97,SW,225,0.7,0.7,89,0.00,,,0.00,WUHU216HW,2015-08-04 07:57:00,
2015-08-04 04:02:00,75.1,71.6,29.98,WSW,248,0.9,1.1,89,0.00,,,0.00,WUHU216HW,2015-08-04 08:02:00,
2015-08-04 04:07:00,75.2,71.8,29.97,WSW,248,0.0,1.1,89,0.00,,,0.00,WUHU216HW,2015-08-04 08:07:00,
2015-08-04 04:12:00,75.2,71.8,29.97,WSW,248,0.0,0.9,89,0.00,,,0.00,WUHU216HW,2015-08-04 08:12:00,
2015-08-04 04:17:00,75.1,71.6,29.98,WSW,248,0.0,0.0,89,0.00,,,0.00,WUHU216HW,2015-08-04 08:17:00,
2015-08-04 04:22:00,74.9,71.5,29.98,SSW,203,0.0,0.9,89,0.00,,,0.00,WUHU216HW,2015-08-04 08:22:00,
2015-08-04 04:27:00,74.9,71.5,29.98,SSW,203,0.0,0.9,89,0.00,,,0.00,WUHU216HW,2015-08-04 08:27:00,
2015-08-04 04:32:00,74.7,71.3,29.98,SSW,203,0.0,0.0,89,0.00,,,0.00,WUHU216HW,2015-08-04 08:32:00,
2015-08-04 04:37:00,74.7,71.3,29.98,SW,225,0.4,0.9,89,0.00,,,0.00,WUHU216HW,2015-08-04 08:37:00,
2015-08-04 04:42:00,74.5,71.1,29.98,SW,225,0.0,1.1,89,0.00,,,0.00,WUHU216HW,2015-08-04 08:42:00,
2015-08-04 04:47:00,74.5,71.1,29.98,SW,225,0.0,1.1,89,0.00,,,0.00,WUHU216HW,2015-08-04 08:47:00,
2015-08-04 04:52:00,74.5,71.1,29.98,SW,225,0.0,0.0,89,0.00,,,0.00,WUHU216HW,2015-08-04 08:52:00,
2015-08-04 04:57:00,74.5,71.1,29.98,SW,225,0.0,0.0,89,0.00,,,0.00,WUHU216HW,2015-08-04 08:57:00,
2015-08-04 05:02:00,74.3,70.9,29.98,SW,225,0.0,0.0,89,0.00,,,0.00,WUHU216HW,2015-08-04 09:02:00,
2015-08-04 05:07:00,74.3,70.9,29.98,SW,225,0.0,0.0,89,0.00,,,0.00,WUHU216HW,2015-08-04 09:07:00,
2015-08-04 05:12:00,74.3,70.9,29.98,SW,225,0.0,0.0,89,0.00,,,0.00,WUHU216HW,2015-08-04 09:12:00,
2015-08-04 05:17:00,74.2,70.7,29.98,SW,225,0.0,0.0,89,0.00,,,0.00,WUHU216HW,2015-08-04 09:17:00,
2015-08-04 05:22:00,74.2,70.7,29.98,SW,225,0.0,0.0,89,0.00,,,0.00,WUHU216HW,2015-08-04 09:22:00,
2015-08-04 05:32:00,74.0,70.6,29.98,SW,225,0.0,0.0,89,0.00,,,0.00,WUHU216HW,2015-08-04 09:32:00,
2015-08-04 05:37:00,73.8,70.4,29.98,SW,225,0.2,0.2,89,0.00,,,0.00,WUHU216HW,2015-08-04 09:37:00,
2015-08-04 05:42:00,74.0,70.6,29.99,SW,225,0.0,0.2,89,0.00,,,0.00,WUHU216HW,2015-08-04 09:42:00,
2015-08-04 05:47:00,74.2,70.7,29.99,SW,225,0.0,0.2,89,0.00,,,0.00,WUHU216HW,2015-08-04 09:47:00,
2015-08-04 05:52:00,74.2,70.7,29.99,SW,225,0.0,0.0,89,0.00,,,0.00,WUHU216HW,2015-08-04 09:52:00,
2015-08-04 05:57:00,74.0,70.6,29.99,SW,225,0.0,0.0,89,0.00,,,0.00,WUHU216HW,2015-08-04 09:57:00,
2015-08-04 06:02:00,73.8,70.4,29.99,SW,225,0.0,0.0,89,0.00,,,0.00,WUHU216HW,2015-08-04 10:02:00,
2015-08-04 06:07:00,73.8,70.7,29.99,SW,225,0.0,0.0,90,0.00,,,0.00,WUHU216HW,2015-08-04 10:07:00,
2015-08-04 06:12:00,73.8,70.7,29.99,SW,225,0.0,0.0,90,0.00,,,0.00,WUHU216HW,2015-08-04 10:12:00,
2015-08-04 06:17:00,73.6,70.6,29.99,SW,225,0.0,0.0,90,0.00,,,0.00,WUHU216HW,2015-08-04 10:17:00,
2015-08-04 06:22:00,73.8,70.7,30.00,SW,225,0.0,0.0,90,0.00,,,0.00,WUHU216HW,2015-08-04 10:22:00,
2015-08-04 06:27:00,73.6,70.6,30.00,SW,225,0.0,0.0,90,0.00,,,0.00,WUHU216HW,2015-08-04 10:27:00,
2015-08-04 06:32:00,73.6,70.6,30.00,SW,225,0.0,0.0,90,0.00,,,0.00,WUHU216HW,2015-08-04 10:32:00,
2015-08-04 06:37:00,73.6,70.6,30.00,SW,225,0.2,0.7,90,0.00,,,0.00,WUHU216HW,2015-08-04 10:37:00,
2015-08-04 06:42:00,73.6,70.6,30.00,SW,225,0.0,0.7,90,0.00,,,0.00,WUHU216HW,2015-08-04 10:42:00,
2015-08-04 06:47:00,73.6,70.6,30.00,SW,225,0.0,0.4,90,0.00,,,0.00,WUHU216HW,2015-08-04 10:47:00,
2015-08-04 06:52:00,73.6,70.6,30.00,SW,225,0.0,0.0,90,0.00,,,0.00,WUHU216HW,2015-08-04 10:52:00,
2015-08-04 06:57:00,73.8,70.7,30.00,SW,225,0.0,0.0,90,0.00,,,0.00,WUHU216HW,2015-08-04 10:57:00,
2015-08-04 07:02:00,73.8,70.7,30.00,SW,225,0.0,0.0,90,0.00,,,0.00,WUHU216HW,2015-08-04 11:02:00,
2015-08-04 07:07:00,73.8,70.7,30.00,SW,225,0.0,0.0,90,0.00,,,0.00,WUHU216HW,2015-08-04 11:07:00,
2015-08-04 07:12:00,74.0,71.2,30.00,SW,225,0.0,0.0,91,0.00,,,0.00,WUHU216HW,2015-08-04 11:12:00,
2015-08-04 07:17:00,74.5,71.7,30.00,SW,225,0.0,0.0,91,0.00,,,0.00,WUHU216HW,2015-08-04 11:17:00,
2015-08-04 07:22:00,74.9,72.1,30.00,SW,225,0.4,0.9,91,0.00,,,0.00,WUHU216HW,2015-08-04 11:22:00,
2015-08-04 07:27:00,75.2,72.2,30.00,WSW,248,0.0,0.9,90,0.00,,,0.00,WUHU216HW,2015-08-04 11:27:00,
2015-08-04 07:32:00,75.6,72.5,30.01,WSW,248,0.0,0.7,90,0.00,,,0.00,WUHU216HW,2015-08-04 11:32:00,
2015-08-04 07:37:00,76.1,73.1,30.01,WSW,248,0.0,0.2,90,0.00,,,0.00,WUHU216HW,2015-08-04 11:37:00,
2015-08-04 07:42:00,76.3,73.3,30.00,WSW,248,0.0,0.0,90,0.00,,,0.00,WUHU216HW,2015-08-04 11:42:00,
2015-08-04 07:47:00,76.7,73.6,30.01,WSW,248,0.4,1.1,90,0.00,,,0.00,WUHU216HW,2015-08-04 11:47:00,
2015-08-04 07:57:00,76.9,73.8,30.01,WSW,248,0.0,0.9,90,0.00,,,0.00,WUHU216HW,2015-08-04 11:57:00,
2015-08-04 08:02:00,77.2,74.2,30.01,WSW,248,0.0,0.9,90,0.00,,,0.00,WUHU216HW,2015-08-04 12:02:00,
2015-08-04 08:07:00,77.6,74.5,30.01,WSW,248,2.0,2.0,90,0.00,,,0.00,WUHU216HW,2015-08-04 12:07:00,
2015-08-04 08:12:00,77.8,74.7,30.01,WSW,248,0.4,2.0,90,0.00,,,0.00,WUHU216HW,2015-08-04 12:12:00,
2015-08-04 08:17:00,77.9,74.5,30.01,SSW,203,0.4,2.0,89,0.00,,,0.00,WUHU216HW,2015-08-04 12:17:00,
2015-08-04 08:22:00,78.3,74.9,30.01,SW,225,0.0,1.1,89,0.00,,,0.00,WUHU216HW,2015-08-04 12:22:00,
2015-08-04 08:27:00,78.8,75.4,30.02,West,270,0.9,1.3,89,0.00,,,0.00,WUHU216HW,2015-08-04 12:27:00,
2015-08-04 08:32:00,79.2,75.8,30.02,WSW,248,1.1,1.8,89,0.00,,,0.00,WUHU216HW,2015-08-04 12:32:00,
2015-08-04 08:37:00,79.4,75.3,30.02,West,270,0.9,1.8,87,0.00,,,0.00,WUHU216HW,2015-08-04 12:37:00,
2015-08-04 08:42:00,79.9,75.7,30.02,WSW,248,0.0,1.8,87,0.00,,,0.00,WUHU216HW,2015-08-04 12:42:00,
2015-08-04 08:47:00,80.5,75.9,30.02,WNW,293,0.9,1.8,86,0.00,,,0.00,WUHU216HW,2015-08-04 12:47:00,
2015-08-04 08:52:00,80.8,75.9,30.02,West,270,0.0,1.6,85,0.00,,,0.00,WUHU216HW,2015-08-04 12:52:00,
2015-08-04 08:57:00,81.4,76.4,30.02,SSW,203,0.0,1.1,85,0.00,,,0.00,WUHU216HW,2015-08-04 12:57:00,
2015-08-04 09:02:00,81.9,76.6,30.02,WSW,248,0.7,1.8,84,0.00,,,0.00,WUHU216HW,2015-08-04 13:02:00,
2015-08-04 09:07:00,82.4,76.8,30.02,WSW,248,0.4,1.8,83,0.00,,,0.00,WUHU216HW,2015-08-04 13:07:00,
2015-08-04 09:12:00,82.8,76.8,30.02,NW,315,0.9,1.6,82,0.00,,,0.00,WUHU216HW,2015-08-04 13:12:00,
2015-08-04 09:17:00,83.3,77.3,30.03,WSW,248,2.0,2.2,82,0.00,,,0.00,WUHU216HW,2015-08-04 13:17:00,
2015-08-04 09:22:00,83.9,77.4,30.03,WSW,248,1.6,4.5,81,0.00,,,0.00,WUHU216HW,2015-08-04 13:22:00,
2015-08-04 09:27:00,84.6,77.8,30.02,SW,225,3.4,4.5,80,0.00,,,0.00,WUHU216HW,2015-08-04 13:27:00,
2015-08-04 09:32:00,85.0,78.1,30.02,SSE,158,1.1,3.8,80,0.00,,,0.00,WUHU216HW,2015-08-04 13:32:00,
2015-08-04 09:37:00,85.7,78.5,30.03,SSW,203,1.8,3.6,79,0.00,,,0.00,WUHU216HW,2015-08-04 13:37:00,
2015-08-04 09:42:00,86.0,78.0,30.03,SW,225,4.0,4.3,77,0.00,,,0.00,WUHU216HW,2015-08-04 13:42:00,
2015-08-04 09:47:00,86.4,77.9,30.02,SSE,158,3.6,4.3,76,0.00,,,0.00,WUHU216HW,2015-08-04 13:47:00,
2015-08-04 09:52:00,86.8,77.5,30.02,NW,315,0.4,4.7,74,0.00,,,0.00,WUHU216HW,2015-08-04 13:52:00,
2015-08-04 09:57:00,87.5,78.2,30.03,SW,225,4.3,6.0,74,0.00,,,0.00,WUHU216HW,2015-08-04 13:57:00,
2015-08-04 10:02:00,87.5,77.4,30.03,SSW,203,3.8,6.0,72,0.00,,,0.00,WUHU216HW,2015-08-04 14:02:00,
2015-08-04 10:07:00,87.8,77.7,30.03,SE,135,1.6,4.7,72,0.00,,,0.00,WUHU216HW,2015-08-04 14:07:00,
2015-08-04 10:12:00,88.4,77.4,30.03,SSW,203,4.3,4.5,70,0.00,,,0.00,WUHU216HW,2015-08-04 14:12:00,
2015-08-04 10:17:00,88.7,76.9,30.03,WSW,248,4.0,5.4,68,0.00,,,0.00,WUHU216HW,2015-08-04 14:17:00,
2015-08-04 10:22:00,89.1,77.2,30.03,South,180,5.6,5.6,68,0.00,,,0.00,WUHU216HW,2015-08-04 14:22:00,
2015-08-04 10:27:00,89.3,77.4,30.03,SW,225,1.8,5.6,68,0.00,,,0.00,WUHU216HW,2015-08-04 14:27:00,
2015-08-04 10:32:00,89.6,77.8,30.03,SW,225,3.1,5.6,68,0.00,,,0.00,WUHU216HW,2015-08-04 14:32:00,
2015-08-04 10:37:00,90.2,77.8,30.04,SSW,203,2.9,6.9,67,0.00,,,0.00,WUHU216HW,2015-08-04 14:37:00,
2015-08-04 10:42:00,90.4,78.0,30.04,South,180,2.5,6.9,67,0.00,,,0.00,WUHU216HW,2015-08-04 14:42:00,
2015-08-04 10:47:00,90.5,77.6,30.04,South,180,4.0,6.3,66,0.00,,,0.00,WUHU216HW,2015-08-04 14:47:00,
2015-08-04 10:52:00,90.7,77.3,30.04,South,180,3.4,6.5,65,0.00,,,0.00,WUHU216HW,2015-08-04 14:52:00,
2015-08-04 10:57:00,91.3,77.8,30.04,SSW,203,5.4,6.5,65,0.00,,,0.00,WUHU216HW,2015-08-04 14:57:00,
2015-08-04 11:02:00,91.4,77.5,30.04,SW,225,3.1,5.4,64,0.00,,,0.00,WUHU216HW,2015-08-04 15:02:00,
2015-08-04 11:07:00,91.8,78.3,30.04,South,180,4.7,4.9,65,0.00,,,0.00,WUHU216HW,2015-08-04 15:07:00,
2015-08-04 11:12:00,92.0,78.0,30.04,WSW,248,3.4,5.8,64,0.00,,,0.00,WUHU216HW,2015-08-04 15:12:00,
2015-08-04 11:17:00,92.2,78.2,30.04,SW,225,3.6,5.8,64,0.00,,,0.00,WUHU216HW,2015-08-04 15:17:00,
2015-08-04 11:22:00,92.2,77.8,30.04,SSW,203,1.1,4.7,63,0.00,,,0.00,WUHU216HW,2015-08-04 15:22:00,
2015-08-04 11:27:00,92.5,77.6,30.04,SSE,158,1.1,4.7,62,0.00,,,0.00,WUHU216HW,2015-08-04 15:27:00,
2015-08-04 11:32:00,93.2,78.3,30.04,SE,135,1.1,4.7,62,0.00,,,0.00,WUHU216HW,2015-08-04 15:32:00,
2015-08-04 11:37:00,93.8,78.9,30.04,SSW,203,1.3,4.0,62,0.00,,,0.00,WUHU216HW,2015-08-04 15:37:00,
2015-08-04 11:42:00,93.1,77.7,30.04,SW,225,2.7,6.3,61,0.00,,,0.00,WUHU216HW,2015-08-04 15:42:00,
2015-08-04 11:47:00,93.4,78.5,30.04,SSW,203,2.7,6.3,62,0.00,,,0.00,WUHU216HW,2015-08-04 15:47:00,
2015-08-04 11:52:00,93.6,74.4,30.04,NNE,23,1.6,4.5,54,0.00,,,0.00,WUHU216HW,2015-08-04 15:52:00,
2015-08-04 11:57:00,92.0,76.1,30.04,SSE,158,5.6,5.6,60,0.00,,,0.00,WUHU216HW,2015-08-04 15:57:00,
2015-08-04 12:02:00,92.3,76.5,30.04,SSW,203,1.8,5.6,60,0.00,,,0.00,WUHU216HW,2015-08-04 16:02:00,
2015-08-04 12:07:00,93.2,76.9,30.04,SSE,158,1.8,4.7,59,0.00,,,0.00,WUHU216HW,2015-08-04 16:07:00,
2015-08-04 12:12:00,93.4,78.0,30.04,ESE,113,3.8,3.8,61,0.00,,,0.00,WUHU216HW,2015-08-04 16:12:00,
2015-08-04 12:17:00,91.4,76.5,30.04,NE,45,1.1,4.0,62,0.00,,,0.00,WUHU216HW,2015-08-04 16:17:00,
2015-08-04 12:22:00,90.7,76.9,30.04,ENE,68,1.6,4.0,64,0.00,,,0.00,WUHU216HW,2015-08-04 16:22:00,
2015-08-04 12:27:00,90.4,77.4,30.04,ENE,68,3.4,4.7,66,0.00,,,0.00,WUHU216HW,2015-08-04 16:27:00,